| time (UTC) | temp F | wind direction | speed knots | gust knots | rain 1hr in | rain 24hr in | rain mn in | humidity % | barometer mb |
| 20260507112017 | 37 | 0.0 | 0.0 | 0.00 | 0.14 | 0.05 | 92 | 1017.8 | |
| 20260507111017 | 37 | 0.0 | 0.0 | 0.00 | 0.14 | 0.05 | 92 | 1017.7 | |
| 20260507110017 | 37 | 0.0 | 0.0 | 0.00 | 0.14 | 0.05 | 92 | 1017.7 | |
| 20260507105017 | 37 | 0.0 | 0.0 | 0.00 | 0.14 | 0.05 | 91 | 1017.7 | |
| 20260507104037 | 37 | 0.0 | 0.0 | 0.00 | 0.14 | 0.05 | 91 | 1017.8 | |
| 20260507103017 | 37 | 0.0 | 0.0 | 0.01 | 0.14 | 0.05 | 91 | 1017.7 | |
| 20260507102020 | 37 | 0.0 | 0.0 | 0.01 | 0.14 | 0.05 | 91 | 1017.7 | |
| 20260507101057 | 37 | 0.0 | 0.0 | 0.02 | 0.14 | 0.05 | 91 | 1017.8 | |
| 20260507100017 | 38 | 0.0 | 0.0 | 0.03 | 0.14 | 0.05 | 91 | 1017.8 | |
| 20260507095017 | 38 | 0.0 | 0.0 | 0.03 | 0.14 | 0.05 | 91 | 1017.7 | |
| 20260507094016 | 38 | 0.0 | 0.0 | 0.03 | 0.14 | 0.05 | 91 | 1017.7 | |
| 20260507093017 | 38 | 0.0 | 0.0 | 0.02 | 0.13 | 0.04 | 91 | 1017.7 | |
| 20260507092037 | 38 | 0.0 | 0.0 | 0.03 | 0.13 | 0.04 | 91 | 1017.7 | |
| 20260507091016 | 38 | 0.0 | 0.0 | 0.03 | 0.12 | 0.03 | 91 | 1017.5 | |
| 20260507090017 | 38 | 0.0 | 0.0 | 0.02 | 0.11 | 0.02 | 91 | 1017.4 | |
| 20260507085016 | 39 | 0.0 | 0.0 | 0.03 | 0.11 | 0.02 | 91 | 1017.3 | |
| 20260507084016 | 39 | 0.0 | 0.0 | 0.04 | 0.11 | 0.02 | 91 | 1017.1 | |
| 20260507083016 | 39 | 0.0 | 0.0 | 0.04 | 0.11 | 0.02 | 90 | 1016.9 | |
| 20260507082016 | 39 | 0.0 | 0.0 | 0.03 | 0.10 | 0.01 | 91 | 1016.9 | |
| 20260507081036 | 39 | 0.0 | 0.0 | 0.02 | 0.09 | 0.00 | 91 | 1016.9 | |
| 20260507080036 | 39 | 0.0 | 0.0 | 0.02 | 0.09 | 0.09 | 91 | 1016.8 | |
| 20260507075017 | 39 | 0.0 | 0.0 | 0.02 | 0.08 | 0.08 | 91 | 1016.7 | |
| 20260507074037 | 39 | 0.0 | 0.0 | 0.01 | 0.07 | 0.07 | 91 | 1016.6 | |
| 20260507073017 | 40 | 0.0 | 0.0 | 0.02 | 0.07 | 0.07 | 91 | 1016.6 | |
| 20260507072017 | 40 | 0.0 | 0.0 | 0.02 | 0.07 | 0.07 | 91 | 1016.5 | |
| 20260507071017 | 40 | 0.0 | 0.0 | 0.03 | 0.07 | 0.07 | 91 | 1016.3 | |
| 20260507070017 | 40 | 0.0 | 0.0 | 0.04 | 0.07 | 0.07 | 91 | 1016.2 | |
| 20260507065017 | 40 | 0.0 | 0.0 | 0.03 | 0.06 | 0.06 | 91 | 1016.0 | |
| 20260507064037 | 40 | 0.0 | 0.0 | 0.03 | 0.06 | 0.06 | 91 | 1015.9 | |
| 20260507063037 | 40 | 0.0 | 0.0 | 0.02 | 0.05 | 0.05 | 90 | 1015.9 | |
| 20260507062016 | 40 | 0.0 | 0.0 | 0.03 | 0.05 | 0.05 | 90 | 1015.9 | |
| 20260507061017 | 41 | 0.0 | 0.0 | 0.02 | 0.04 | 0.04 | 90 | 1015.8 | |
| 20260507060016 | 41 | 0.0 | 0.0 | 0.01 | 0.03 | 0.03 | 89 | 1015.6 | |
| 20260507055017 | 41 | 0.0 | 0.0 | 0.01 | 0.03 | 0.03 | 89 | 1015.4 | |
| 20260507054016 | 41 | 0.0 | 0.0 | 0.01 | 0.03 | 0.03 | 89 | 1015.4 | |
| 20260507053037 | 41 | 0.0 | 0.0 | 0.01 | 0.03 | 0.03 | 89 | 1015.4 | |
| 20260507052037 | 42 | 0.0 | 3.5 | 0.00 | 0.02 | 0.02 | 89 | 1015.4 | |
| 20260507051017 | 42 | 0.0 | 1.7 | 0.01 | 0.02 | 0.02 | 89 | 1015.3 | |
| 20260507050016 | 42 | 0.0 | 0.0 | 0.01 | 0.02 | 0.02 | 89 | 1015.2 | |
| 20260507045016 | 42 | 0.0 | 0.0 | 0.01 | 0.02 | 0.02 | 89 | 1015.1 | |
| 20260507044016 | 42 | 0.0 | 0.0 | 0.01 | 0.02 | 0.02 | 88 | 1015.0 | |
| 20260507043019 | 42 | 0.0 | 0.0 | 0.01 | 0.02 | 0.02 | 88 | 1014.8 | |
| 20260507042016 | 42 | 0.0 | 0.0 | 0.01 | 0.02 | 0.02 | 87 | 1014.8 | |
| 20260507041016 | 43 | 0.0 | 0.0 | 0.00 | 0.01 | 0.01 | 87 | 1014.7 | |
| 20260507040016 | 43 | 0.0 | 0.0 | 0.00 | 0.01 | 0.01 | 87 | 1014.7 | |
| 20260507035016 | 43 | 0.0 | 0.0 | 0.00 | 0.01 | 0.01 | 87 | 1014.6 | |
| 20260507034016 | 43 | 0.0 | 0.0 | 0.00 | 0.01 | 0.01 | 86 | 1014.6 | |
| 20260507033016 | 43 | 0.0 | 0.0 | 0.00 | 0.01 | 0.01 | 84 | 1014.4 | |
| 20260507032016 | 44 | 0.0 | 0.0 | 0.00 | 0.01 | 0.01 | 85 | 1014.4 | |
| 20260507031036 | 44 | 0.0 | 0.0 | 0.00 | 0.01 | 0.01 | 84 | 1014.3 | |
| 20260507030016 | 45 | 0.0 | 0.0 | 0.00 | 0.01 | 0.01 | 81 | 1014.3 | |
| 20260507025016 | 45 | 0.0 | 0.0 | 0.00 | 0.01 | 0.01 | 79 | 1014.3 | |
| 20260507024016 | 45 | 0.0 | 0.0 | 0.00 | 0.01 | 0.01 | 80 | 1014.2 | |
| 20260507023016 | 45 | 0.0 | 0.0 | 0.00 | 0.01 | 0.01 | 78 | 1014.1 | |
| 20260507022016 | 45 | 0.0 | 0.0 | 0.00 | 0.01 | 0.01 | 77 | 1014.0 | |
| 20260507021036 | 45 | 0.0 | 0.0 | 0.00 | 0.01 | 0.01 | 77 | 1014.0 | |
| 20260507020016 | 45 | 0.0 | 1.7 | 0.00 | 0.01 | 0.01 | 76 | 1014.0 | |
| 20260507015016 | 46 | 0.0 | 4.3 | 0.00 | 0.01 | 0.01 | 75 | 1013.9 | |
| 20260507014016 | 47 | 0.0 | 3.5 | 0.00 | 0.01 | 0.01 | 73 | 1013.9 | |
| 20260507013016 | 47 | 0.0 | 0.0 | 0.00 | 0.01 | 0.01 | 69 | 1013.8 | |
| 20260507012015 | 47 | 0.0 | 3.5 | 0.00 | 0.01 | 0.01 | 68 | 1013.8 | |
| 20260507011016 | 46 | 270 | 0.9 | 4.3 | 0.00 | 0.01 | 0.01 | 68 | 1013.9 |
| 20260507010015 | 46 | 0.0 | 0.0 | 0.00 | 0.01 | 0.01 | 73 | 1013.8 | |
| 20260507005015 | 46 | 0.0 | 1.7 | 0.00 | 0.01 | 0.01 | 73 | 1013.7 | |
| 20260507004015 | 46 | 0.0 | 0.0 | 0.00 | 0.01 | 0.01 | 73 | 1013.6 | |
| 20260507003015 | 46 | 0.0 | 0.0 | 0.00 | 0.01 | 0.01 | 73 | 1013.6 | |
| 20260507002015 | 46 | 293 | 0.9 | 4.3 | 0.00 | 0.01 | 0.01 | 73 | 1013.5 |
| 20260507001018 | 47 | 0.0 | 2.6 | 0.00 | 0.01 | 0.01 | 73 | 1013.5 | |
| 20260507000017 | 46 | 0.0 | 0.0 | 0.00 | 0.01 | 0.01 | 72 | 1013.5 | |
| 20260506235018 | 46 | 0.0 | 0.0 | 0.00 | 0.01 | 0.01 | 73 | 1013.4 | |
| 20260506234017 | 46 | 0.0 | 0.0 | 0.00 | 0.01 | 0.01 | 74 | 1013.4 | |
| 20260506233017 | 46 | 0.0 | 0.0 | 0.00 | 0.01 | 0.01 | 74 | 1013.3 | |
| 20260506232017 | 46 | 293 | 0.9 | 4.3 | 0.00 | 0.01 | 0.01 | 73 | 1013.3 |
| 20260506231017 | 45 | 0.0 | 0.0 | 0.00 | 0.01 | 0.01 | 74 | 1013.1 | |
| 20260506230037 | 45 | 225 | 0.9 | 7.8 | 0.00 | 0.01 | 0.01 | 75 | 1013.1 |
| 20260506225017 | 45 | 270 | 1.7 | 5.2 | 0.00 | 0.01 | 0.01 | 73 | 1013.0 |
| 20260506224017 | 46 | 248 | 2.6 | 7.0 | 0.00 | 0.01 | 0.01 | 72 | 1013.0 |
| 20260506223017 | 47 | 0.0 | 0.0 | 0.00 | 0.01 | 0.01 | 71 | 1012.8 | |
| 20260506222017 | 47 | 203 | 0.9 | 3.5 | 0.00 | 0.01 | 0.01 | 67 | 1012.9 |
| 20260506221017 | 48 | 0.0 | 0.0 | 0.00 | 0.01 | 0.01 | 66 | 1012.8 | |
| 20260506220017 | 48 | 225 | 0.9 | 4.3 | 0.00 | 0.01 | 0.01 | 67 | 1012.7 |
| 20260506215017 | 48 | 225 | 0.9 | 4.3 | 0.00 | 0.01 | 0.01 | 68 | 1012.7 |
| 20260506214037 | 48 | 248 | 1.7 | 7.8 | 0.00 | 0.01 | 0.01 | 67 | 1012.6 |
| 20260506213017 | 48 | 248 | 2.6 | 5.2 | 0.00 | 0.01 | 0.01 | 66 | 1012.5 |
| 20260506212016 | 47 | 248 | 1.7 | 4.3 | 0.00 | 0.01 | 0.01 | 66 | 1012.4 |
| 20260506211037 | 47 | 248 | 1.7 | 3.5 | 0.00 | 0.01 | 0.01 | 68 | 1012.3 |
| 20260506210037 | 47 | 0.0 | 0.0 | 0.00 | 0.01 | 0.01 | 66 | 1012.3 | |
| 20260506205036 | 47 | 0.0 | 0.0 | 0.00 | 0.01 | 0.01 | 69 | 1012.2 | |
| 20260506204017 | 47 | 0.0 | 0.0 | 0.00 | 0.01 | 0.01 | 69 | 1012.1 | |
| 20260506203017 | 47 | 248 | 0.9 | 2.6 | 0.00 | 0.01 | 0.01 | 70 | 1012.1 |
| 20260506202017 | 46 | 248 | 0.9 | 3.5 | 0.00 | 0.01 | 0.01 | 71 | 1012.1 |
| 20260506201037 | 46 | 248 | 1.7 | 3.5 | 0.00 | 0.01 | 0.01 | 71 | 1012.0 |
| 20260506200016 | 46 | 248 | 2.6 | 3.5 | 0.00 | 0.01 | 0.01 | 71 | 1012.0 |
| 20260506195016 | 47 | 135 | 0.9 | 2.6 | 0.00 | 0.01 | 0.01 | 70 | 1012.0 |
| 20260506194016 | 47 | 0.0 | 2.6 | 0.00 | 0.01 | 0.01 | 69 | 1011.9 | |
| 20260506193016 | 47 | 135 | 0.9 | 3.5 | 0.00 | 0.01 | 0.01 | 70 | 1011.9 |
| 20260506192016 | 46 | 0.0 | 2.6 | 0.00 | 0.01 | 0.01 | 71 | 1011.8 | |
| 20260506191016 | 46 | 0.0 | 0.9 | 0.00 | 0.01 | 0.01 | 71 | 1011.9 | |
| 20260506190018 | 45 | 0.0 | 0.0 | 0.00 | 0.01 | 0.01 | 73 | 1011.8 | |
| 20260506185016 | 45 | 0.0 | 0.0 | 0.00 | 0.01 | 0.01 | 72 | 1011.8 | |
| 20260506184016 | 45 | 0.0 | 0.0 | 0.00 | 0.01 | 0.01 | 75 | 1011.9 | |
| 20260506183016 | 44 | 0.0 | 0.0 | 0.00 | 0.01 | 0.01 | 75 | 1011.8 | |
| 20260506182016 | 44 | 0.0 | 0.0 | 0.00 | 0.01 | 0.01 | 76 | 1011.8 | |
| 20260506181016 | 43 | 0.0 | 0.0 | 0.00 | 0.01 | 0.01 | 79 | 1011.7 | |
| 20260506180016 | 43 | 0.0 | 2.6 | 0.00 | 0.01 | 0.01 | 78 | 1011.7 | |
| 20260506175016 | 42 | 0.0 | 0.0 | 0.00 | 0.01 | 0.01 | 81 | 1011.6 | |
| 20260506174036 | 42 | 0.0 | 0.0 | 0.00 | 0.01 | 0.01 | 81 | 1011.7 | |
| 20260506173016 | 42 | 0.0 | 0.0 | 0.00 | 0.01 | 0.01 | 84 | 1011.6 | |
| 20260506172056 | 41 | 0.0 | 0.0 | 0.01 | 0.01 | 0.01 | 86 | 1011.6 | |
| 20260506171016 | 41 | 0.0 | 0.0 | 0.01 | 0.01 | 0.01 | 88 | 1011.5 | |
| 20260506170016 | 41 | 0.0 | 0.0 | 0.01 | 0.01 | 0.01 | 89 | 1011.5 | |
| 20260506165036 | 40 | 0.0 | 0.0 | 0.01 | 0.01 | 0.01 | 89 | 1011.5 | |
| 20260506164016 | 40 | 0.0 | 0.0 | 0.01 | 0.01 | 0.01 | 90 | 1011.4 | |
| 20260506163016 | 40 | 0.0 | 0.0 | 0.01 | 0.01 | 0.01 | 90 | 1011.3 | |
| 20260506162016 | 39 | 0.0 | 0.0 | 0.00 | 0.00 | 0.00 | 90 | 1011.2 | |
| 20260506161016 | 39 | 0.0 | 0.0 | 0.00 | 0.00 | 0.00 | 90 | 1011.3 | |
| 20260506160016 | 39 | 0.0 | 0.0 | 0.00 | 0.00 | 0.00 | 90 | 1011.2 | |
| 20260506155015 | 38 | 0.0 | 0.0 | 0.00 | 0.00 | 0.00 | 91 | 1011.1 | |
| 20260506154016 | 38 | 0.0 | 0.0 | 0.00 | 0.00 | 0.00 | 90 | 1011.1 | |
| 20260506153016 | 38 | 0.0 | 0.0 | 0.00 | 0.00 | 0.00 | 90 | 1011.1 | |
| 20260506152015 | 37 | 0.0 | 0.0 | 0.00 | 0.00 | 0.00 | 90 | 1011.2 | |
| 20260506151016 | 37 | 0.0 | 0.0 | 0.00 | 0.00 | 0.00 | 90 | 1011.1 | |
| 20260506150016 | 36 | 0.0 | 0.0 | 0.00 | 0.00 | 0.00 | 89 | 1011.1 | |
| 20260506145015 | 36 | 0.0 | 0.0 | 0.00 | 0.00 | 0.00 | 89 | 1011.1 | |
| 20260506144038 | 36 | 0.0 | 0.0 | 0.00 | 0.00 | 0.00 | 88 | 1011.0 | |
| 20260506143017 | 36 | 0.0 | 0.0 | 0.00 | 0.00 | 0.00 | 88 | 1011.0 | |
| 20260506142017 | 36 | 0.0 | 0.0 | 0.00 | 0.00 | 0.00 | 87 | 1011.0 | |
| 20260506141017 | 37 | 0.0 | 0.0 | 0.00 | 0.00 | 0.00 | 87 | 1011.0 | |
| 20260506140017 | 37 | 0.0 | 0.0 | 0.00 | 0.00 | 0.00 | 92 | 1011.0 | |
| 20260506135017 | 37 | 0.0 | 0.0 | 0.00 | 0.00 | 0.00 | 86 | 1011.0 | |
| 20260506134139 | 37 | 0.0 | 0.0 | 0.00 | 0.00 | 0.00 | 86 | 1011.0 | |
| 20260506133017 | 38 | 0.0 | 0.0 | 0.00 | 0.00 | 0.00 | 86 | 1011.0 | |
| 20260506132017 | 38 | 0.0 | 0.0 | 0.00 | 0.00 | 0.00 | 85 | 1010.9 | |
| 20260506131038 | 39 | 0.0 | 0.0 | 0.00 | 0.00 | 0.00 | 84 | 1010.9 | |
| 20260506130017 | 39 | 0.0 | 0.0 | 0.00 | 0.00 | 0.00 | 82 | 1011.0 | |
| 20260506125017 | 40 | 0.0 | 0.0 | 0.00 | 0.00 | 0.00 | 80 | 1011.0 | |
| 20260506124017 | 40 | 0.0 | 0.0 | 0.00 | 0.00 | 0.00 | 78 | 1011.0 | |
| 20260506123017 | 40 | 0.0 | 0.0 | 0.00 | 0.00 | 0.00 | 76 | 1010.9 | |
| 20260506122017 | 41 | 0.0 | 0.0 | 0.00 | 0.00 | 0.00 | 75 | 1010.8 | |
| 20260506121017 | 41 | 0.0 | 0.0 | 0.00 | 0.00 | 0.00 | 75 | 1010.7 | |
| 20260506120017 | 41 | 0.0 | 0.0 | 0.00 | 0.00 | 0.00 | 74 | 1010.7 | |
| 20260506115017 | 41 | 0.0 | 0.0 | 0.00 | 0.00 | 0.00 | 74 | 1010.7 | |
| 20260506114017 | 41 | 0.0 | 0.0 | 0.00 | 0.00 | 0.00 | 73 | 1010.6 | |
| 20260506113017 | 41 | 0.0 | 0.0 | 0.00 | 0.00 | 0.00 | 72 | 1010.6 |